首页
METAR-TAF:

METAR-TAF

机场 :

Brenner Field

Falls City, 內布拉斯加州, 美国

纬度: 40-04-44N, 经度: 095-35-31W, 海拔: 300米

当前天气观测

该预报发布于1小时和8分钟前的03:53 UTC
风速9节,风向西转西北
温度 10°C
湿度 66%
气压 1008 hPa
能見度: 16.1公里
天空无云

METAR: KFNB 190353Z AUTO 30009KT 10SM CLR 10/04 A2977 RMK AO2 SLP082 T01000039

时间: 23:01 (05:01 UTC)


TAF: 丢失

超过4000个机场的气象观测和天气预报(METAR&TAF报告)。

可查询的气象台以黄色和红色小点在地图上表示。

将鼠标移到小点上方,可查看气象台名称。

然后点击查看天气观测和预报。

如需切换地图:点击带黑十字的绿色按钮放大地图;点击带横线的绿色按钮缩小地图;或者点击绿色箭头查看邻近地区的地图。


METAR-TAF: